createdAt,value
2022-11-06T00:00:50.696Z,100044.88
2022-11-06T00:03:19.393Z,100036.94
2022-11-06T00:06:20.243Z,100039.47
2022-11-06T00:08:48.986Z,100036.81
2022-11-06T00:11:18.921Z,100027.25
2022-11-06T00:13:48.207Z,100033.25
2022-11-06T00:16:18.243Z,100027.19
2022-11-06T00:18:47.304Z,100035.81
2022-11-06T00:21:18.935Z,100034.09
2022-11-06T00:23:48.702Z,100044.38
2022-11-06T00:26:20.102Z,100041.78
2022-11-06T00:28:49.972Z,100037.44
2022-11-06T00:31:23.268Z,100035.66
2022-11-06T00:33:52.602Z,100031.28
2022-11-06T00:36:23.971Z,100035.56
2022-11-06T00:38:54.038Z,100043.34
2022-11-06T00:41:23.952Z,100041.59
2022-11-06T00:43:54.696Z,100036.41
2022-11-06T00:46:25.146Z,100045.88
2022-11-06T00:48:54.925Z,100046.78
2022-11-06T00:51:26.032Z,100041.59
2022-11-06T00:54:00.346Z,100036.41
2022-11-06T00:56:30.308Z,100044.09
2022-11-06T00:59:01.394Z,100044.03
2022-11-06T01:01:34.632Z,100042.31
2022-11-06T01:04:07.177Z,100038.72
2022-11-06T01:06:39.838Z,100033.47
2022-11-06T01:09:10.447Z,100042.81
2022-11-06T01:12:11.220Z,100050.56
2022-11-06T01:14:30.795Z,100048.63
2022-11-06T01:17:02.411Z,100058.09
2022-11-06T01:19:32.417Z,100048.59
2022-11-06T01:22:01.031Z,100039.09
2022-11-06T01:24:30.610Z,100037.47
2022-11-06T01:27:24.773Z,100030.50
2022-11-06T01:29:47.767Z,100022.75
2022-11-06T01:32:17.676Z,100014.97
2022-11-06T01:34:46.868Z,100014.97
2022-11-06T01:37:15.405Z,100006.28
2022-11-06T01:39:44.996Z,99998.50
2022-11-06T01:42:14.941Z,99999.41
2022-11-06T01:45:29.789Z,99999.31
2022-11-06T01:47:59.797Z,99996.75
2022-11-06T01:50:29.067Z,99995.03
2022-11-06T01:53:00.804Z,99983.88
2022-11-06T01:55:34.133Z,99982.13
2022-11-06T01:58:04.910Z,99982.97
2022-11-06T02:00:33.691Z,99976.84
2022-11-06T02:03:04.632Z,99970.84
2022-11-06T02:05:34.088Z,99977.72
2022-11-06T02:08:03.176Z,99975.06
2022-11-06T02:10:32.799Z,99967.16
2022-11-06T02:13:25.991Z,99959.25
2022-11-06T02:16:09.694Z,99948.81
2022-11-06T02:19:17.064Z,99959.13
2022-11-06T02:22:27.032Z,99962.53
2022-11-06T02:25:18.042Z,99954.69
2022-11-06T02:27:53.448Z,99960.75
2022-11-06T02:30:22.384Z,99961.56
2022-11-06T02:32:57.105Z,99966.81
2022-11-06T02:35:30.792Z,99955.56
2022-11-06T02:38:03.654Z,99952.09
2022-11-06T02:40:34.705Z,99965.03
2022-11-06T02:43:09.354Z,99964.94
2022-11-06T02:45:44.988Z,99952.00
2022-11-06T02:48:19.754Z,99954.56
2022-11-06T02:50:51.830Z,99945.09
2022-11-06T02:53:25.944Z,99952.00
2022-11-06T02:55:59.417Z,99954.56
2022-11-06T02:58:38.991Z,99946.72
2022-11-06T03:01:17.103Z,99954.41
2022-11-06T03:03:52.124Z,99942.28
2022-11-06T03:06:28.521Z,99939.63
2022-11-06T03:09:02.769Z,99936.16
2022-11-06T03:11:35.741Z,99943.03
2022-11-06T03:14:14.858Z,99943.03
2022-11-06T03:16:54.462Z,99924.91
2022-11-06T03:19:29.063Z,99927.50
2022-11-06T03:22:04.698Z,99922.34
2022-11-06T03:24:36.456Z,99924.13
2022-11-06T03:27:13.378Z,99924.16
2022-11-06T03:29:47.365Z,99912.94
2022-11-06T03:32:21.793Z,99915.47
2022-11-06T03:34:55.894Z,99917.97
2022-11-06T03:37:30.711Z,99913.59
2022-11-06T03:40:05.091Z,99909.25
2022-11-06T03:42:34.295Z,99899.56
2022-11-06T03:45:11.791Z,99892.78
2022-11-06T03:47:44.827Z,99891.09
2022-11-06T03:50:20.766Z,99899.66
2022-11-06T03:53:00.320Z,99914.22
2022-11-06T03:55:36.081Z,99906.34
2022-11-06T03:58:08.055Z,99920.13
2022-11-06T04:00:40.201Z,99918.41
2022-11-06T04:03:17.679Z,99934.00
2022-11-06T04:05:51.109Z,99933.94
2022-11-06T04:08:40.280Z,99935.66
2022-11-06T04:11:29.152Z,99928.53
2022-11-06T04:14:00.842Z,99935.38
2022-11-06T04:16:34.825Z,99927.59
2022-11-06T04:19:03.800Z,99936.19
2022-11-06T04:21:46.421Z,99937.94
2022-11-06T04:24:46.144Z,99934.47
2022-11-06T04:27:41.885Z,99934.41
2022-11-06T04:30:13.192Z,99927.53
2022-11-06T04:33:07.266Z,99921.47
2022-11-06T04:35:51.147Z,99916.28
2022-11-06T04:38:36.130Z,99918.13
2022-11-06T04:41:15.616Z,99914.66
2022-11-06T04:43:49.324Z,99917.25
2022-11-06T04:46:25.041Z,99912.06
2022-11-06T04:48:56.176Z,99907.78
2022-11-06T04:51:28.589Z,99912.06
2022-11-06T04:53:57.911Z,99897.28
2022-11-06T04:56:34.886Z,99905.84
2022-11-06T04:59:04.750Z,99896.28
2022-11-06T05:01:34.123Z,99891.91
2022-11-06T05:04:03.998Z,99896.13
2022-11-06T05:06:32.421Z,99891.63
2022-11-06T05:09:01.350Z,99879.44
2022-11-06T05:11:30.205Z,99874.22
2022-11-06T05:13:58.573Z,99882.78
2022-11-06T05:16:27.100Z,99867.09
2022-11-06T05:18:55.722Z,99866.28
2022-11-06T05:21:43.485Z,99862.81
2022-11-06T05:24:12.274Z,99855.81
2022-11-06T05:26:41.005Z,99851.47
2022-11-06T05:29:09.553Z,99849.69
2022-11-06T05:31:37.969Z,99847.91
2022-11-06T05:34:06.919Z,99841.94
2022-11-06T05:36:36.815Z,99830.78
2022-11-06T05:39:05.384Z,99833.34
2022-11-06T05:41:34.069Z,99828.09
2022-11-06T05:44:02.536Z,99826.41
2022-11-06T05:46:49.235Z,99823.75
2022-11-06T05:49:19.012Z,99827.22
2022-11-06T05:51:49.009Z,99822.88
2022-11-06T05:54:17.427Z,99820.34
2022-11-06T05:56:45.954Z,99820.44
2022-11-06T05:59:14.554Z,99815.25
2022-11-06T06:01:43.619Z,99829.00
2022-11-06T06:04:12.132Z,99813.34
2022-11-06T06:06:40.746Z,99811.59
2022-11-06T06:09:10.535Z,99807.28
2022-11-06T06:11:39.120Z,99802.94
2022-11-06T06:14:07.889Z,99797.84
2022-11-06T06:16:36.294Z,99791.78
2022-11-06T06:19:04.909Z,99784.84
2022-11-06T06:21:33.280Z,99781.34
2022-11-06T06:24:01.708Z,99792.66
2022-11-06T06:26:31.657Z,99791.78
2022-11-06T06:29:02.183Z,99789.13
2022-11-06T06:31:31.066Z,99791.63
2022-11-06T06:33:59.477Z,99799.38
2022-11-06T06:36:27.924Z,99794.22
2022-11-06T06:38:56.596Z,99797.69
2022-11-06T06:41:25.496Z,99799.47
2022-11-06T06:43:55.764Z,99803.00
2022-11-06T06:46:24.199Z,99795.25
2022-11-06T06:48:52.696Z,99796.13
2022-11-06T06:51:23.948Z,99791.84
2022-11-06T06:53:52.876Z,99790.97
2022-11-06T06:56:21.292Z,99786.69
2022-11-06T06:58:49.832Z,99799.63
2022-11-06T07:01:20.014Z,99791.00
2022-11-06T07:03:48.587Z,99800.47
2022-11-06T07:06:19.740Z,99797.06
2022-11-06T07:08:48.450Z,99802.25
2022-11-06T07:11:18.209Z,99808.31
2022-11-06T07:13:46.581Z,99808.31
2022-11-06T07:16:15.277Z,99809.13
2022-11-06T07:18:45.091Z,99807.41
2022-11-06T07:21:14.816Z,99803.91
2022-11-06T07:23:43.221Z,99811.59
2022-11-06T07:26:11.573Z,99811.59
2022-11-06T07:28:40.511Z,99816.84
2022-11-06T07:31:12.379Z,99812.56
2022-11-06T07:33:40.970Z,99811.66
2022-11-06T07:36:13.840Z,99816.00
2022-11-06T07:38:44.115Z,99811.69
2022-11-06T07:41:14.875Z,99808.31
2022-11-06T07:43:44.111Z,99809.19
2022-11-06T07:46:14.558Z,99819.63
2022-11-06T07:48:42.991Z,99821.41
2022-11-06T07:51:13.484Z,99817.97
2022-11-06T07:53:42.325Z,99818.03
2022-11-06T07:56:10.866Z,99812.94
2022-11-06T07:58:39.559Z,99813.06
2022-11-06T08:01:17.950Z,99805.38
2022-11-06T08:03:47.509Z,99800.22
2022-11-06T08:06:17.271Z,99789.06
2022-11-06T08:08:46.115Z,99793.34
2022-11-06T08:11:14.915Z,99783.00
2022-11-06T08:13:44.223Z,99781.22
2022-11-06T08:16:15.403Z,99789.13
2022-11-06T08:18:44.740Z,99798.72
2022-11-06T08:21:13.104Z,99788.44
2022-11-06T08:23:42.817Z,99784.22
2022-11-06T08:26:13.086Z,99786.84
2022-11-06T08:28:41.750Z,99780.06
2022-11-06T08:31:10.878Z,99780.25
2022-11-06T08:33:40.659Z,99772.63
2022-11-06T08:36:10.903Z,99777.97
2022-11-06T08:38:39.612Z,99785.81
2022-11-06T08:41:11.964Z,99782.44
2022-11-06T08:43:40.706Z,99782.53
2022-11-06T08:46:10.817Z,99786.97
2022-11-06T08:48:39.252Z,99780.97
2022-11-06T08:51:08.101Z,99773.41
2022-11-06T08:53:36.661Z,99773.44
2022-11-06T08:56:06.241Z,99766.63
2022-11-06T08:58:36.466Z,99764.94
2022-11-06T09:01:05.886Z,99767.59
2022-11-06T09:03:34.479Z,99755.53
2022-11-06T09:06:02.925Z,99747.00
2022-11-06T09:08:31.615Z,99735.91
2022-11-06T09:11:00.028Z,99735.94
2022-11-06T09:13:28.547Z,99734.38
2022-11-06T09:15:58.411Z,99730.16
2022-11-06T09:18:26.783Z,99726.81
2022-11-06T09:20:57.200Z,99714.00
2022-11-06T09:23:26.596Z,99729.66
2022-11-06T09:25:55.146Z,99713.38
2022-11-06T09:28:23.525Z,99710.97
2022-11-06T09:30:52.627Z,99724.00
2022-11-06T09:33:22.612Z,99716.41
2022-11-06T09:35:51.069Z,99711.38
2022-11-06T09:38:20.114Z,99706.28
2022-11-06T09:40:52.819Z,99706.38
2022-11-06T09:44:03.689Z,99704.78
2022-11-06T09:46:28.104Z,99701.38
2022-11-06T09:49:05.953Z,99693.75
2022-11-06T09:51:39.680Z,99692.97
2022-11-06T09:54:16.357Z,99699.09
2022-11-06T09:56:47.317Z,99684.50
2022-11-06T09:59:19.847Z,99680.38
2022-11-06T10:01:52.840Z,99683.06
2022-11-06T10:04:43.535Z,99673.66
2022-11-06T10:07:30.570Z,99672.00
2022-11-06T10:10:01.588Z,99673.78
2022-11-06T10:12:53.688Z,99666.94
2022-11-06T10:15:27.413Z,99667.06
2022-11-06T10:18:03.027Z,99663.63
2022-11-06T10:20:44.983Z,99655.13
2022-11-06T10:23:21.667Z,99657.81
2022-11-06T10:26:08.101Z,99663.91
2022-11-06T10:29:01.145Z,99662.19
2022-11-06T10:31:37.791Z,99652.78
2022-11-06T10:34:11.507Z,99645.94
2022-11-06T10:36:50.130Z,99644.28
2022-11-06T10:39:22.889Z,99632.31
2022-11-06T10:41:57.796Z,99625.50
2022-11-06T10:44:34.689Z,99610.91
2022-11-06T10:47:11.250Z,99606.75
2022-11-06T10:49:46.532Z,99606.84
2022-11-06T10:52:47.492Z,99611.22
2022-11-06T10:55:49.558Z,99604.38
2022-11-06T10:58:22.081Z,99603.59
2022-11-06T11:00:52.481Z,99600.16
2022-11-06T11:03:27.453Z,99604.69
2022-11-06T11:05:56.324Z,99608.16
2022-11-06T11:08:44.839Z,99599.63
2022-11-06T11:11:25.341Z,99597.97
2022-11-06T11:14:16.213Z,99597.25
2022-11-06T11:16:47.407Z,99586.03
2022-11-06T11:19:25.415Z,99586.16
2022-11-06T11:21:57.324Z,99590.53
2022-11-06T11:24:27.911Z,99568.09
2022-11-06T11:27:01.470Z,99567.25
2022-11-06T11:29:33.140Z,99575.09
2022-11-06T11:32:06.156Z,99555.25
2022-11-06T11:34:40.625Z,99543.09
2022-11-06T11:37:26.160Z,99538.75
2022-11-06T11:39:56.482Z,99543.94
2022-11-06T11:42:29.767Z,99544.75
2022-11-06T11:45:18.450Z,99524.00
2022-11-06T11:47:49.079Z,99529.19
2022-11-06T11:50:31.128Z,99527.47
2022-11-06T11:53:10.125Z,99507.56
2022-11-06T11:55:45.597Z,99507.63
2022-11-06T11:58:23.009Z,99501.59
2022-11-06T12:00:56.228Z,99497.31
2022-11-06T12:03:28.569Z,99494.78
2022-11-06T12:06:08.180Z,99499.97
2022-11-06T12:08:37.222Z,99488.78
2022-11-06T12:11:08.481Z,99483.66
2022-11-06T12:13:36.909Z,99476.69
2022-11-06T12:16:09.158Z,99474.16
2022-11-06T12:18:42.185Z,99466.41
2022-11-06T12:21:16.972Z,99468.19
2022-11-06T12:23:51.758Z,99464.69
2022-11-06T12:26:33.085Z,99454.38
2022-11-06T12:29:11.731Z,99452.69
2022-11-06T12:31:43.364Z,99432.81
2022-11-06T12:34:22.440Z,99433.75
2022-11-06T12:37:09.639Z,99427.69
2022-11-06T12:39:40.268Z,99412.88
2022-11-06T12:42:13.832Z,99413.81
2022-11-06T12:44:42.237Z,99401.69
2022-11-06T12:47:26.561Z,99387.88
2022-11-06T12:50:15.108Z,99379.16
2022-11-06T12:53:06.312Z,99379.16
2022-11-06T12:55:39.018Z,99372.31
2022-11-06T12:58:36.327Z,99365.38
2022-11-06T13:01:11.978Z,99365.38
2022-11-06T13:04:06.193Z,99348.97
2022-11-06T13:07:35.428Z,99357.53
2022-11-06T13:10:26.410Z,99358.41
2022-11-06T13:13:25.551Z,99343.75
2022-11-06T13:16:03.222Z,99357.59
2022-11-06T13:18:36.662Z,99367.13
2022-11-06T13:21:12.216Z,99363.72
2022-11-06T13:23:48.366Z,99368.91
2022-11-06T13:26:23.904Z,99373.22
2022-11-06T13:29:08.918Z,99374.91
2022-11-06T13:31:43.238Z,99369.72
2022-11-06T13:34:20.209Z,99359.41
2022-11-06T13:36:49.369Z,99354.16
2022-11-06T13:39:24.302Z,99360.25
2022-11-06T13:41:54.762Z,99356.75
2022-11-06T13:44:25.826Z,99336.91
2022-11-06T13:47:00.644Z,99352.53
2022-11-06T13:49:37.791Z,99353.41
2022-11-06T13:52:17.564Z,99349.16
2022-11-06T13:55:06.252Z,99353.59
2022-11-06T13:58:07.270Z,99348.41
2022-11-06T14:00:53.628Z,99356.25
2022-11-06T14:04:02.559Z,99358.78
2022-11-06T14:06:33.450Z,99350.94
2022-11-06T14:09:06.388Z,99349.28
2022-11-06T14:11:38.172Z,99352.78
2022-11-06T14:14:09.286Z,99346.75
2022-11-06T14:16:40.632Z,99357.13
2022-11-06T14:19:15.297Z,99351.94
2022-11-06T14:21:50.828Z,99351.13
2022-11-06T14:24:41.188Z,99363.28
2022-11-06T14:27:15.147Z,99352.84
2022-11-06T14:30:08.038Z,99345.94
2022-11-06T14:32:45.149Z,99337.28
2022-11-06T14:35:50.610Z,99326.00
2022-11-06T14:38:38.714Z,99335.44
2022-11-06T14:41:55.598Z,99325.81
2022-11-06T14:44:41.836Z,99330.13
2022-11-06T14:47:33.535Z,99337.09
2022-11-06T14:50:08.815Z,99336.28
2022-11-06T14:52:46.021Z,99345.88
2022-11-06T14:55:32.139Z,99331.19
2022-11-06T14:58:15.369Z,99336.38
2022-11-06T15:00:52.276Z,99345.03
2022-11-06T15:03:36.487Z,99338.13
2022-11-06T15:06:34.928Z,99329.50
2022-11-06T15:09:07.814Z,99320.84
2022-11-06T15:11:58.372Z,99314.81
2022-11-06T15:15:01.656Z,99314.75
2022-11-06T15:17:40.931Z,99317.34
2022-11-06T15:20:28.458Z,99313.06
2022-11-06T15:23:07.917Z,99310.44
2022-11-06T15:25:38.938Z,99300.91
2022-11-06T15:28:14.414Z,99301.72
2022-11-06T15:30:49.586Z,99300.84
2022-11-06T15:33:24.104Z,99305.16
2022-11-06T15:35:53.017Z,99295.59
2022-11-06T15:38:36.799Z,99305.16
2022-11-06T15:41:08.889Z,99303.38
2022-11-06T15:43:38.692Z,99297.28
2022-11-06T15:46:18.206Z,99296.41
2022-11-06T15:48:47.820Z,99293.69
2022-11-06T15:51:26.008Z,99303.25
2022-11-06T15:53:56.179Z,99303.19
2022-11-06T15:56:30.700Z,99302.38
2022-11-06T15:59:14.555Z,99306.69
2022-11-06T16:01:48.031Z,99304.94
2022-11-06T16:04:22.118Z,99302.28
2022-11-06T16:06:53.199Z,99301.41
2022-11-06T16:09:26.783Z,99310.06
2022-11-06T16:11:56.972Z,99329.06
2022-11-06T16:14:26.097Z,99322.03
2022-11-06T16:16:56.996Z,99327.09
2022-11-06T16:19:32.835Z,99333.94
2022-11-06T16:22:07.395Z,99328.59
2022-11-06T16:24:44.709Z,99330.25
2022-11-06T16:27:14.271Z,99331.84
2022-11-06T16:29:49.590Z,99326.50
2022-11-06T16:32:22.226Z,99323.75
2022-11-06T16:34:51.885Z,99295.91
2022-11-06T16:37:40.239Z,99292.38
2022-11-06T16:43:30.440Z,99257.59
2022-11-06T16:46:05.460Z,99232.50
2022-11-06T16:48:37.632Z,99235.09
2022-11-06T16:51:10.248Z,99186.66
2022-11-06T16:53:57.504Z,99218.59
2022-11-06T16:56:29.864Z,99197.81
2022-11-06T16:59:08.886Z,99166.69
2022-11-06T17:01:40.381Z,99169.22
2022-11-06T17:04:21.702Z,99172.69
2022-11-06T17:06:51.980Z,99190.84
2022-11-06T17:09:31.537Z,99188.25
2022-11-06T17:12:01.921Z,99188.13
2022-11-06T17:14:33.070Z,99188.88
2022-11-06T17:17:03.364Z,99186.28
2022-11-06T17:19:32.206Z,99195.72
2022-11-06T17:22:00.851Z,99187.00
2022-11-06T17:24:37.680Z,99177.47
2022-11-06T17:27:06.953Z,99176.53
2022-11-06T17:29:37.123Z,99174.81
2022-11-06T17:32:05.840Z,99181.72
2022-11-06T17:34:34.579Z,99179.13
2022-11-06T17:37:03.321Z,99177.41
2022-11-06T17:39:33.794Z,99177.41
2022-11-06T17:42:02.544Z,99161.00
2022-11-06T17:44:30.928Z,99150.63
2022-11-06T17:47:00.708Z,99149.75
2022-11-06T17:49:29.098Z,99156.63
2022-11-06T17:52:00.967Z,99143.59
2022-11-06T17:54:32.596Z,99153.16
2022-11-06T17:57:03.496Z,99153.97
2022-11-06T17:59:32.513Z,99129.72
2022-11-06T18:02:02.774Z,99127.13
2022-11-06T18:04:34.387Z,99127.06
2022-11-06T18:07:02.948Z,99120.16
2022-11-06T18:09:31.495Z,99100.22
2022-11-06T18:12:00.311Z,99096.75
2022-11-06T18:14:29.411Z,99094.97
2022-11-06T18:16:58.009Z,99087.19
2022-11-06T18:19:28.615Z,99082.84
2022-11-06T18:21:59.975Z,99084.50
2022-11-06T18:24:32.321Z,99077.53
2022-11-06T18:27:00.645Z,99066.28
2022-11-06T18:29:29.319Z,99070.53
2022-11-06T18:31:58.419Z,99075.66
2022-11-06T18:34:28.181Z,99078.22
2022-11-06T18:36:56.610Z,99079.94
2022-11-06T18:39:25.316Z,99089.41
2022-11-06T18:41:53.985Z,99098.00
2022-11-06T18:44:22.556Z,99120.47
2022-11-06T18:46:51.025Z,99129.06
2022-11-06T18:49:19.746Z,99112.66
2022-11-06T18:51:49.609Z,99116.97
2022-11-06T18:54:18.086Z,99110.94
2022-11-06T18:56:46.710Z,99116.06
2022-11-06T18:59:19.537Z,99098.81
2022-11-06T19:01:48.276Z,99107.47
2022-11-06T19:04:17.029Z,99107.41
2022-11-06T19:06:45.491Z,99104.84
2022-11-06T19:09:15.523Z,99101.41
2022-11-06T19:11:44.039Z,99110.91
2022-11-06T19:14:12.832Z,99110.88
2022-11-06T19:16:41.263Z,99108.28
2022-11-06T19:19:10.197Z,99112.59
2022-11-06T19:21:40.562Z,99123.06
2022-11-06T19:24:09.895Z,99121.38
2022-11-06T19:26:40.072Z,99117.06
2022-11-06T19:29:10.361Z,99119.66
2022-11-06T19:31:39.608Z,99120.47
2022-11-06T19:34:09.217Z,99105.81
2022-11-06T19:36:37.805Z,99106.72
2022-11-06T19:39:07.411Z,99135.22
2022-11-06T19:41:36.400Z,99138.69
2022-11-06T19:44:09.363Z,99133.63
2022-11-06T19:46:38.119Z,99131.03
2022-11-06T19:49:10.258Z,99141.44
2022-11-06T19:51:41.085Z,99142.28
2022-11-06T19:54:11.580Z,99143.16
2022-11-06T19:57:26.977Z,99136.28
2022-11-06T19:59:31.593Z,99149.25
2022-11-06T20:02:00.388Z,99145.75
2022-11-06T20:04:29.029Z,99131.09
2022-11-06T20:06:58.788Z,99156.19
2022-11-06T20:09:27.296Z,99163.06
2022-11-06T20:11:56.117Z,99160.47
2022-11-06T20:14:24.745Z,99164.88
2022-11-06T20:16:55.193Z,99164.06
2022-11-06T20:19:24.030Z,99152.81
2022-11-06T20:21:52.808Z,99160.63
2022-11-06T20:24:21.570Z,99160.66
2022-11-06T20:26:50.107Z,99158.97
2022-11-06T20:29:18.949Z,99146.84
2022-11-06T20:31:47.483Z,99164.97
2022-11-06T20:34:17.885Z,99170.09
2022-11-06T20:36:46.585Z,99182.19
2022-11-06T20:39:16.970Z,99183.09
2022-11-06T20:41:45.588Z,99164.97
2022-11-06T20:44:14.357Z,99181.44
2022-11-06T20:46:44.307Z,99190.03
2022-11-06T20:49:17.147Z,99194.34
2022-11-06T20:52:12.240Z,99192.69
2022-11-06T20:54:34.831Z,99192.69
2022-11-06T20:57:03.728Z,99193.59
2022-11-06T20:59:32.239Z,99197.06
2022-11-06T21:02:00.827Z,99191.00
2022-11-06T21:04:32.044Z,99191.88
2022-11-06T21:07:00.931Z,99197.91
2022-11-06T21:09:29.709Z,99194.47
2022-11-06T21:11:58.234Z,99184.94
2022-11-06T21:14:27.075Z,99192.72
2022-11-06T21:16:56.600Z,99215.19
2022-11-06T21:19:25.824Z,99205.66
2022-11-06T21:21:56.793Z,99201.34
2022-11-06T21:24:25.978Z,99207.41
2022-11-06T21:26:55.947Z,99217.78
2022-11-06T21:29:25.790Z,99215.25
2022-11-06T21:31:54.593Z,99219.63
2022-11-06T21:34:23.225Z,99222.28
2022-11-06T21:36:52.209Z,99229.22
2022-11-06T21:39:22.620Z,99229.22
2022-11-06T21:41:51.097Z,99231.81
2022-11-06T21:44:20.269Z,99238.78
2022-11-06T21:46:49.689Z,99231.00
2022-11-06T21:49:18.622Z,99240.53
2022-11-06T21:51:47.933Z,99237.06
2022-11-06T21:54:36.469Z,99245.66
2022-11-06T21:57:06.671Z,99255.09
2022-11-06T21:59:40.403Z,99246.44
2022-11-06T22:02:11.021Z,99266.38
2022-11-06T22:04:39.446Z,99259.44
2022-11-06T22:07:07.771Z,99250.84
2022-11-06T22:09:36.140Z,99249.13
2022-11-06T22:12:07.220Z,99263.03
2022-11-06T22:14:35.614Z,99260.38
2022-11-06T22:17:04.165Z,99251.78
2022-11-06T22:19:32.882Z,99246.53
2022-11-06T22:22:01.555Z,99257.78
2022-11-06T22:24:30.088Z,99260.44
2022-11-06T22:26:58.561Z,99245.81
2022-11-06T22:29:28.338Z,99264.84
2022-11-06T22:31:57.589Z,99260.56
2022-11-06T22:34:26.551Z,99250.19
2022-11-06T22:36:55.197Z,99250.19
2022-11-06T22:39:23.783Z,99263.16
2022-11-06T22:41:52.790Z,99265.78
2022-11-06T22:44:22.008Z,99268.38
2022-11-06T22:46:52.234Z,99269.25
2022-11-06T22:49:20.605Z,99264.09
2022-11-06T22:51:49.043Z,99259.78
2022-11-06T22:54:17.452Z,99267.56
2022-11-06T22:56:45.830Z,99269.25
2022-11-06T22:59:14.483Z,99273.56
2022-11-06T23:01:43.854Z,99277.94
2022-11-06T23:04:15.846Z,99261.53
2022-11-06T23:06:45.473Z,99271.88
2022-11-06T23:09:15.252Z,99279.72
2022-11-06T23:11:47.290Z,99279.78
2022-11-06T23:14:16.373Z,99288.38
2022-11-06T23:17:00.756Z,99283.13
2022-11-06T23:19:33.150Z,99292.72
2022-11-06T23:22:19.632Z,99293.50
2022-11-06T23:24:48.080Z,99287.44
2022-11-06T23:27:16.881Z,99303.09
2022-11-06T23:29:45.384Z,99305.69
2022-11-06T23:32:13.992Z,99303.16
2022-11-06T23:34:43.927Z,99308.34
2022-11-06T23:37:12.291Z,99305.75
2022-11-06T23:39:40.949Z,99311.84
2022-11-06T23:42:09.545Z,99311.88
2022-11-06T23:44:55.588Z,99302.41
2022-11-06T23:47:24.020Z,99302.34
2022-11-06T23:49:53.918Z,99309.28
2022-11-06T23:52:22.828Z,99311.88
2022-11-06T23:54:51.295Z,99310.19
2022-11-06T23:57:19.990Z,99315.41
2022-11-06T23:59:49.126Z,99311.97
